createdAt,value
2017-10-23T00:02:06.306Z,19.43
2017-10-23T00:04:33.103Z,18.87
2017-10-23T00:06:59.888Z,27.17
2017-10-23T00:09:26.636Z,23.13
2017-10-23T00:11:53.338Z,24.83
2017-10-23T00:14:20.087Z,24.20
2017-10-23T00:16:47.734Z,26.60
2017-10-23T00:19:17.112Z,26.07
2017-10-23T00:21:44.208Z,34.53
2017-10-23T00:24:11.684Z,24.57
2017-10-23T00:26:38.513Z,37.57
2017-10-23T00:29:06.383Z,27.10
2017-10-23T00:31:33.036Z,23.47
2017-10-23T00:33:59.687Z,27.17
2017-10-23T00:36:26.468Z,28.67
2017-10-23T00:38:53.108Z,31.53
2017-10-23T00:41:19.777Z,31.73
2017-10-23T00:43:47.534Z,28.73
2017-10-23T00:46:14.302Z,22.13
2017-10-23T00:48:41.048Z,27.80
2017-10-23T00:51:07.887Z,28.33
2017-10-23T00:53:34.673Z,25.20
2017-10-23T00:56:02.307Z,27.07
2017-10-23T00:58:29.135Z,32.20
2017-10-23T01:00:56.060Z,28.97
2017-10-23T01:03:23.002Z,21.10
2017-10-23T01:05:50.832Z,22.07
2017-10-23T01:08:17.607Z,26.43
2017-10-23T01:10:44.300Z,19.00
2017-10-23T01:13:11.038Z,27.00
2017-10-23T01:15:37.793Z,21.60
2017-10-23T01:18:04.458Z,28.57
2017-10-23T01:20:31.319Z,24.53
2017-10-23T01:22:58.932Z,27.60
2017-10-23T01:25:25.675Z,27.47
2017-10-23T01:27:52.665Z,23.63
2017-10-23T01:30:20.048Z,25.23
2017-10-23T01:32:47.661Z,31.17
2017-10-23T01:35:14.346Z,24.13
2017-10-23T01:37:41.053Z,25.07
2017-10-23T01:40:07.727Z,20.73
2017-10-23T01:42:34.631Z,21.10
2017-10-23T01:45:01.459Z,24.30
2017-10-23T01:47:28.205Z,21.17
2017-10-23T01:49:54.874Z,23.30
2017-10-23T01:52:21.493Z,17.10
2017-10-23T01:54:48.141Z,18.43
2017-10-23T01:57:14.865Z,25.83
2017-10-23T01:59:41.582Z,19.13
2017-10-23T02:02:08.184Z,20.97
2017-10-23T02:04:35.064Z,19.40
2017-10-23T02:07:01.859Z,19.23
2017-10-23T02:09:28.698Z,34.93
2017-10-23T02:11:55.757Z,24.97
2017-10-23T02:14:22.419Z,19.10
2017-10-23T02:16:48.995Z,24.80
2017-10-23T02:19:15.952Z,22.90
2017-10-23T02:21:42.760Z,20.93
2017-10-23T02:24:09.427Z,24.47
2017-10-23T02:26:36.786Z,21.33
2017-10-23T02:29:03.420Z,26.57
2017-10-23T02:31:30.242Z,24.77
2017-10-23T02:33:57.135Z,28.80
2017-10-23T02:36:23.914Z,22.13
2017-10-23T02:38:50.627Z,33.63
2017-10-23T02:41:17.390Z,30.50
2017-10-23T02:43:44.132Z,23.13
2017-10-23T02:46:10.813Z,26.53
2017-10-23T02:48:37.553Z,27.17
2017-10-23T02:51:04.217Z,25.60
2017-10-23T02:53:31.247Z,29.30
2017-10-23T02:55:58.220Z,30.13
2017-10-23T02:58:24.919Z,26.20
2017-10-23T03:00:51.597Z,25.10
2017-10-23T03:03:18.224Z,33.80
2017-10-23T03:05:45.644Z,21.37
2017-10-23T03:08:12.433Z,32.10
2017-10-23T03:10:39.193Z,27.60
2017-10-23T03:13:06.011Z,31.03
2017-10-23T03:15:32.676Z,31.50
2017-10-23T03:17:59.490Z,28.63
2017-10-23T03:20:26.196Z,24.13
2017-10-23T03:22:52.953Z,26.73
2017-10-23T03:25:19.761Z,24.67
2017-10-23T03:27:46.533Z,22.80
2017-10-23T03:30:13.373Z,27.07
2017-10-23T03:32:40.825Z,24.07
2017-10-23T03:35:07.876Z,26.73
2017-10-23T03:37:34.621Z,25.93
2017-10-23T03:40:01.709Z,25.70
2017-10-23T03:42:28.452Z,30.40
2017-10-23T03:44:55.390Z,27.77
2017-10-23T03:47:22.267Z,24.47
2017-10-23T03:49:48.911Z,25.77
2017-10-23T03:52:15.948Z,19.80
2017-10-23T03:54:42.822Z,22.10
2017-10-23T03:57:09.877Z,24.63
2017-10-23T03:59:36.603Z,26.00
2017-10-23T04:02:03.413Z,30.67
2017-10-23T04:04:30.161Z,21.47
2017-10-23T04:06:56.968Z,27.93
2017-10-23T04:09:24.052Z,20.77
2017-10-23T04:11:50.950Z,28.17
2017-10-23T04:14:18.556Z,21.77
2017-10-23T04:16:46.254Z,38.90
2017-10-23T04:19:13.883Z,24.60
2017-10-23T04:21:40.816Z,18.27
2017-10-23T04:24:08.301Z,24.20
2017-10-23T04:26:37.205Z,28.53
2017-10-23T04:29:04.854Z,24.20
2017-10-23T04:31:32.045Z,23.57
2017-10-23T04:33:58.739Z,18.90
2017-10-23T04:36:25.639Z,19.10
2017-10-23T04:38:53.784Z,21.70
2017-10-23T04:41:20.748Z,22.73
2017-10-23T04:43:47.442Z,20.47
2017-10-23T04:46:15.357Z,25.57
2017-10-23T04:48:42.970Z,24.07
2017-10-23T04:51:09.717Z,19.33
2017-10-23T04:53:36.431Z,20.30
2017-10-23T04:56:03.390Z,24.93
2017-10-23T04:58:30.593Z,19.40
2017-10-23T05:00:57.274Z,20.00
2017-10-23T05:03:24.110Z,21.10
2017-10-23T05:05:50.783Z,28.17
2017-10-23T05:08:17.988Z,20.93
2017-10-23T05:10:44.943Z,26.13
2017-10-23T05:13:11.648Z,26.30
2017-10-23T05:15:39.262Z,24.53
2017-10-23T05:18:06.030Z,22.00
2017-10-23T05:20:32.705Z,21.30
2017-10-23T05:22:59.939Z,25.10
2017-10-23T05:25:26.773Z,23.33
2017-10-23T05:27:53.587Z,21.37
2017-10-23T05:30:20.569Z,17.40
2017-10-23T05:32:47.585Z,26.90
2017-10-23T05:35:14.448Z,28.03
2017-10-23T05:37:42.211Z,23.53
2017-10-23T05:40:09.114Z,25.70
2017-10-23T05:42:36.507Z,20.13
2017-10-23T05:45:03.405Z,21.70
2017-10-23T05:47:30.247Z,20.37
2017-10-23T05:49:57.217Z,33.97
2017-10-23T05:52:24.083Z,27.43
2017-10-23T05:54:50.924Z,27.73
2017-10-23T05:57:17.847Z,25.00
2017-10-23T05:59:44.843Z,26.30
2017-10-23T06:02:11.624Z,24.10
2017-10-23T06:04:38.289Z,23.90
2017-10-23T06:07:05.079Z,27.10
2017-10-23T06:09:31.901Z,21.30
2017-10-23T06:11:58.811Z,27.13
2017-10-23T06:14:25.576Z,24.00
2017-10-23T06:16:52.368Z,24.73
2017-10-23T06:19:19.264Z,22.40
2017-10-23T06:21:46.289Z,24.10
2017-10-23T06:24:13.234Z,20.47
2017-10-23T06:26:40.723Z,26.07
2017-10-23T06:29:07.739Z,18.70
2017-10-23T06:31:34.612Z,25.57
2017-10-23T06:34:02.211Z,24.43
2017-10-23T06:36:29.312Z,20.97
2017-10-23T06:38:56.028Z,20.53
2017-10-23T06:41:23.046Z,19.60
2017-10-23T06:43:49.942Z,24.07
2017-10-23T06:46:16.778Z,26.87
2017-10-23T06:48:43.614Z,23.13
2017-10-23T06:51:10.466Z,16.07
2017-10-23T06:53:37.310Z,18.33
2017-10-23T06:56:04.298Z,24.60
2017-10-23T06:58:31.458Z,19.40
2017-10-23T07:00:58.266Z,20.50
2017-10-23T07:03:25.086Z,20.43
2017-10-23T07:05:51.761Z,15.67
2017-10-23T07:08:18.627Z,17.10
2017-10-23T07:10:45.446Z,15.93
2017-10-23T07:13:12.260Z,15.47
2017-10-23T07:15:38.909Z,17.60
2017-10-23T07:18:06.489Z,18.50
2017-10-23T07:20:33.904Z,12.57
2017-10-23T07:23:00.723Z,17.80
2017-10-23T07:25:27.573Z,19.70
2017-10-23T07:27:54.301Z,16.40
2017-10-23T07:30:21.057Z,17.17
2017-10-23T07:32:48.653Z,17.60
2017-10-23T07:35:16.248Z,15.27
2017-10-23T07:37:44.073Z,15.43
2017-10-23T07:40:10.945Z,20.60
2017-10-23T07:42:38.172Z,15.40
2017-10-23T07:45:05.296Z,16.13
2017-10-23T07:47:32.022Z,34.93
2017-10-23T07:49:58.716Z,27.13
2017-10-23T07:52:25.606Z,26.97
2017-10-23T07:54:52.439Z,19.87
2017-10-23T07:57:19.920Z,16.70
2017-10-23T07:59:46.670Z,12.57
2017-10-23T08:02:13.689Z,12.33
2017-10-23T08:04:40.332Z,13.60
2017-10-23T08:07:07.909Z,13.40
2017-10-23T08:09:34.753Z,11.60
2017-10-23T08:12:01.965Z,12.87
2017-10-23T08:14:29.277Z,19.60
2017-10-23T08:16:56.304Z,20.07
2017-10-23T08:19:23.477Z,8.93
2017-10-23T08:21:50.321Z,14.23
2017-10-23T08:24:17.101Z,10.80
2017-10-23T08:26:43.861Z,10.47
2017-10-23T08:29:10.906Z,8.93
2017-10-23T08:31:38.475Z,12.10
2017-10-23T08:34:05.246Z,8.00
2017-10-23T08:36:32.256Z,11.53
2017-10-23T08:38:59.091Z,10.60
2017-10-23T08:41:27.347Z,10.47
2017-10-23T08:43:54.038Z,7.00
2017-10-23T08:46:21.172Z,17.70
2017-10-23T08:48:48.076Z,12.60
2017-10-23T08:51:16.461Z,13.87
2017-10-23T08:53:43.244Z,9.60
2017-10-23T08:56:11.787Z,11.07
2017-10-23T08:58:38.903Z,11.03
2017-10-23T09:01:06.481Z,13.73
2017-10-23T09:03:33.482Z,10.27
2017-10-23T09:06:01.094Z,9.23
2017-10-23T09:08:28.297Z,12.03
2017-10-23T09:10:55.082Z,8.80
2017-10-23T09:13:21.844Z,6.67
2017-10-23T09:15:49.228Z,8.37
2017-10-23T09:18:16.128Z,7.63
2017-10-23T09:20:43.076Z,9.07
2017-10-23T09:23:11.868Z,11.50
2017-10-23T09:25:39.717Z,10.17
2017-10-23T09:28:07.114Z,8.53
2017-10-23T09:30:33.940Z,9.83
2017-10-23T09:33:00.675Z,12.63
2017-10-23T09:35:27.661Z,10.10
2017-10-23T09:37:55.421Z,9.57
2017-10-23T09:40:22.014Z,9.60
2017-10-23T09:42:48.650Z,11.73
2017-10-23T09:45:15.421Z,13.53
2017-10-23T09:47:42.250Z,9.13
2017-10-23T09:50:09.191Z,11.57
2017-10-23T09:52:36.756Z,11.10
2017-10-23T09:55:03.833Z,12.50
2017-10-23T09:57:31.749Z,8.70
2017-10-23T09:59:59.590Z,6.00
2017-10-23T10:02:26.495Z,10.10
2017-10-23T10:04:53.324Z,9.43
2017-10-23T10:07:20.251Z,10.37
2017-10-23T10:09:47.347Z,9.03
2017-10-23T10:12:15.196Z,6.90
2017-10-23T10:14:42.486Z,8.43
2017-10-23T10:17:11.071Z,9.90
2017-10-23T10:19:38.829Z,7.43
2017-10-23T10:22:05.842Z,5.43
2017-10-23T10:24:33.422Z,5.43
2017-10-23T10:27:00.324Z,5.80
2017-10-23T10:29:27.985Z,10.83
2017-10-23T10:31:54.898Z,8.07
2017-10-23T10:34:22.022Z,5.60
2017-10-23T10:36:49.378Z,5.93
2017-10-23T10:39:16.743Z,5.97
2017-10-23T10:41:43.568Z,5.90
2017-10-23T10:44:11.851Z,5.80
2017-10-23T10:46:39.571Z,5.10
2017-10-23T10:49:08.237Z,6.77
2017-10-23T10:51:35.079Z,4.60
2017-10-23T10:54:02.853Z,10.20
2017-10-23T10:56:29.591Z,10.90
2017-10-23T10:58:56.528Z,8.23
2017-10-23T11:01:24.254Z,6.40
2017-10-23T11:03:51.958Z,4.53
2017-10-23T11:06:18.869Z,6.00
2017-10-23T11:08:47.729Z,4.83
2017-10-23T11:11:14.693Z,5.50
2017-10-23T11:13:42.281Z,4.97
2017-10-23T11:16:09.040Z,5.43
2017-10-23T11:18:37.594Z,4.13
2017-10-23T11:21:04.434Z,7.03
2017-10-23T11:23:31.061Z,6.67
2017-10-23T11:25:57.974Z,6.83
2017-10-23T11:28:26.222Z,7.50
2017-10-23T11:30:53.118Z,5.93
2017-10-23T11:33:20.060Z,4.17
2017-10-23T11:35:46.898Z,4.30
2017-10-23T11:38:14.155Z,4.37
2017-10-23T11:40:41.243Z,3.93
2017-10-23T11:43:08.245Z,4.40
2017-10-23T11:45:35.089Z,6.23
2017-10-23T11:48:02.703Z,3.80
2017-10-23T11:50:30.408Z,4.60
2017-10-23T11:52:57.341Z,4.33
2017-10-23T11:55:24.064Z,3.50
2017-10-23T11:57:50.799Z,3.77
2017-10-23T12:00:18.644Z,4.43
2017-10-23T12:02:47.152Z,4.30
2017-10-23T12:05:13.974Z,3.17
2017-10-23T12:07:40.908Z,2.80
2017-10-23T12:10:07.742Z,2.87
2017-10-23T12:12:35.315Z,2.67
2017-10-23T12:15:02.338Z,4.77
2017-10-23T12:17:29.738Z,4.23
2017-10-23T12:19:56.855Z,3.40
2017-10-23T12:22:23.606Z,3.70
2017-10-23T12:24:50.561Z,3.00
2017-10-23T12:27:17.294Z,3.53
2017-10-23T12:29:44.121Z,3.13
2017-10-23T12:32:11.622Z,2.93
2017-10-23T12:34:38.621Z,4.57
2017-10-23T12:37:05.544Z,4.70
2017-10-23T12:39:37.445Z,7.30
2017-10-23T12:42:04.834Z,4.13
2017-10-23T12:44:32.871Z,3.97
2017-10-23T12:46:59.684Z,2.87
2017-10-23T12:49:26.461Z,2.90
2017-10-23T12:51:53.238Z,4.20
2017-10-23T12:54:20.031Z,7.00
2017-10-23T12:56:46.877Z,2.50
2017-10-23T12:59:14.679Z,2.80
2017-10-23T13:01:41.447Z,3.43
2017-10-23T13:04:08.141Z,3.93
2017-10-23T13:06:35.273Z,3.00
2017-10-23T13:09:02.006Z,5.83
2017-10-23T13:11:29.046Z,2.53
2017-10-23T13:13:55.791Z,3.00
2017-10-23T13:16:23.476Z,7.60
2017-10-23T13:18:50.296Z,2.97
2017-10-23T13:21:17.763Z,2.67
2017-10-23T13:23:45.416Z,3.90
2017-10-23T13:26:12.343Z,3.57
2017-10-23T13:28:39.318Z,2.77
2017-10-23T13:31:06.176Z,2.70
2017-10-23T13:33:32.811Z,2.10
2017-10-23T13:36:01.043Z,2.63
2017-10-23T13:38:28.395Z,1.90
2017-10-23T13:40:55.648Z,2.50
2017-10-23T13:43:22.702Z,2.23
2017-10-23T13:45:49.670Z,2.07
2017-10-23T13:48:16.314Z,2.00
2017-10-23T13:50:43.049Z,1.83
2017-10-23T13:53:09.808Z,3.17
2017-10-23T13:55:36.844Z,1.80
2017-10-23T13:58:03.515Z,2.17
2017-10-23T14:00:30.972Z,2.70
2017-10-23T14:02:57.700Z,1.80
2017-10-23T14:05:24.473Z,2.10
2017-10-23T14:07:51.227Z,2.00
2017-10-23T14:10:18.212Z,2.33
2017-10-23T14:12:45.308Z,1.87
2017-10-23T14:15:15.240Z,1.93
2017-10-23T14:17:42.003Z,1.93
2017-10-23T14:20:08.782Z,3.13
2017-10-23T14:22:35.647Z,3.40
2017-10-23T14:25:02.668Z,3.40
2017-10-23T14:27:29.760Z,3.10
2017-10-23T14:29:56.528Z,3.00
2017-10-23T14:32:23.186Z,2.60
2017-10-23T14:34:49.993Z,3.50
2017-10-23T14:37:16.852Z,2.93
2017-10-23T14:39:43.613Z,3.93
2017-10-23T14:42:10.351Z,3.10
2017-10-23T14:44:37.827Z,4.53
2017-10-23T14:47:04.717Z,6.50
2017-10-23T14:49:31.600Z,4.43
2017-10-23T14:51:58.347Z,2.60
2017-10-23T14:54:25.366Z,5.37
2017-10-23T14:56:52.134Z,3.63
2017-10-23T14:59:18.868Z,4.20
2017-10-23T15:01:45.710Z,3.23
2017-10-23T15:04:13.192Z,3.23
2017-10-23T15:06:39.950Z,2.87
2017-10-23T15:09:07.076Z,3.10
2017-10-23T15:11:33.989Z,2.90
2017-10-23T15:14:00.882Z,5.80
2017-10-23T15:16:27.956Z,3.10
2017-10-23T15:18:55.229Z,2.57
2017-10-23T15:21:24.427Z,4.73
2017-10-23T15:23:51.478Z,3.23
2017-10-23T15:26:18.405Z,3.20
2017-10-23T15:28:45.095Z,7.40
2017-10-23T15:31:11.990Z,3.40
2017-10-23T15:33:38.620Z,3.27
2017-10-23T15:36:05.279Z,3.57
2017-10-23T15:38:32.285Z,7.87
2017-10-23T15:40:59.216Z,3.53
2017-10-23T15:43:25.996Z,6.20
2017-10-23T15:45:52.998Z,5.10
2017-10-23T15:48:19.903Z,4.10
2017-10-23T15:50:46.604Z,3.67
2017-10-23T15:53:13.430Z,5.13
2017-10-23T15:55:41.203Z,5.63
2017-10-23T15:58:09.435Z,6.67
2017-10-23T16:00:36.201Z,4.40
2017-10-23T16:03:03.267Z,4.23
2017-10-23T16:05:29.870Z,3.80
2017-10-23T16:07:56.480Z,8.83
2017-10-23T16:10:23.215Z,4.30
2017-10-23T16:12:49.996Z,4.23
2017-10-23T16:15:16.652Z,3.93
2017-10-23T16:17:43.783Z,3.97
2017-10-23T16:20:10.650Z,7.00
2017-10-23T16:22:37.682Z,4.53
2017-10-23T16:25:04.578Z,3.50
2017-10-23T16:27:31.366Z,4.83
2017-10-23T16:29:58.229Z,4.70
2017-10-23T16:32:25.131Z,5.57
2017-10-23T16:34:52.060Z,5.53
2017-10-23T16:37:18.828Z,5.73
2017-10-23T16:39:45.786Z,6.17
2017-10-23T16:42:12.760Z,9.70
2017-10-23T16:44:39.579Z,8.67
2017-10-23T16:47:06.752Z,6.80
2017-10-23T16:49:33.661Z,8.50
2017-10-23T16:52:00.617Z,9.73
2017-10-23T16:54:27.347Z,10.33
2017-10-23T16:56:54.316Z,7.70
2017-10-23T16:59:21.561Z,7.57
2017-10-23T17:01:48.527Z,9.13
2017-10-23T17:04:15.549Z,8.77
2017-10-23T17:06:42.623Z,7.80
2017-10-23T17:09:09.339Z,14.10
2017-10-23T17:11:36.594Z,6.60
2017-10-23T17:14:03.686Z,8.80
2017-10-23T17:16:30.891Z,8.80
2017-10-23T17:18:57.828Z,7.20
2017-10-23T17:21:24.982Z,9.30
2017-10-23T17:23:51.962Z,9.30
2017-10-23T17:26:18.891Z,7.90
2017-10-23T17:28:45.989Z,11.80
2017-10-23T17:31:13.797Z,11.17
2017-10-23T17:33:40.705Z,8.17
2017-10-23T17:36:07.743Z,7.30
2017-10-23T17:38:34.747Z,10.03
2017-10-23T17:41:01.842Z,13.40
2017-10-23T17:43:28.984Z,11.30
2017-10-23T17:45:55.826Z,9.77
2017-10-23T17:48:23.567Z,9.30
2017-10-23T17:50:50.252Z,9.50
2017-10-23T17:53:17.291Z,7.80
2017-10-23T17:55:44.884Z,7.70
2017-10-23T17:58:11.782Z,27.50
2017-10-23T18:00:39.328Z,8.40
2017-10-23T18:03:06.041Z,9.20
2017-10-23T18:05:33.427Z,10.33
2017-10-23T18:08:00.391Z,10.00
2017-10-23T18:10:27.035Z,17.17
2017-10-23T18:12:54.072Z,10.90
2017-10-23T18:15:21.386Z,13.40
2017-10-23T18:17:49.085Z,14.53
2017-10-23T18:20:16.061Z,15.90
2017-10-23T18:22:42.936Z,11.60
2017-10-23T18:25:09.546Z,15.10
2017-10-23T18:27:36.347Z,10.57
2017-10-23T18:30:03.357Z,11.33
2017-10-23T18:32:30.043Z,11.57
2017-10-23T18:34:56.751Z,9.93
2017-10-23T18:37:23.567Z,13.47
2017-10-23T18:39:51.209Z,14.80
2017-10-23T18:42:17.957Z,14.27
2017-10-23T18:44:46.144Z,13.73
2017-10-23T18:47:14.893Z,10.60
2017-10-23T18:49:43.656Z,10.30
2017-10-23T18:52:11.587Z,11.07
2017-10-23T18:54:38.712Z,10.10
2017-10-23T18:57:05.579Z,9.77
2017-10-23T18:59:33.461Z,8.60
2017-10-23T19:02:01.695Z,11.33
2017-10-23T19:04:29.889Z,11.47
2017-10-23T19:06:57.599Z,13.30
2017-10-23T19:09:25.176Z,17.37
2017-10-23T19:11:52.842Z,11.57
2017-10-23T19:14:20.697Z,11.07
2017-10-23T19:16:47.647Z,14.00
2017-10-23T19:19:14.698Z,11.37
2017-10-23T19:21:41.944Z,18.20
2017-10-23T19:24:08.851Z,17.73
2017-10-23T19:26:35.667Z,18.43
2017-10-23T19:29:02.847Z,15.27
2017-10-23T19:31:29.769Z,16.53
2017-10-23T19:33:56.976Z,12.43
2017-10-23T19:36:25.421Z,13.63
2017-10-23T19:38:52.699Z,13.83
2017-10-23T19:41:19.847Z,15.17
2017-10-23T19:43:46.605Z,18.80
2017-10-23T19:46:14.582Z,17.97
2017-10-23T19:48:41.583Z,20.53
2017-10-23T19:51:09.256Z,20.43
2017-10-23T19:53:36.006Z,22.00
2017-10-23T19:56:05.293Z,22.90
2017-10-23T19:58:32.725Z,24.77
2017-10-23T20:00:59.690Z,25.80
2017-10-23T20:03:28.496Z,29.57
2017-10-23T20:05:56.757Z,24.53
2017-10-23T20:08:23.495Z,24.53
2017-10-23T20:10:51.019Z,26.17
2017-10-23T20:13:17.772Z,27.70
2017-10-23T20:15:44.654Z,28.27
2017-10-23T20:18:11.279Z,25.87
2017-10-23T20:20:38.281Z,29.33
2017-10-23T20:23:05.299Z,27.50
2017-10-23T20:25:31.991Z,33.27
2017-10-23T20:27:59.111Z,33.40
2017-10-23T20:30:26.255Z,30.27
2017-10-23T20:32:53.686Z,33.50
2017-10-23T20:35:20.544Z,32.53
2017-10-23T20:37:47.391Z,27.60
2017-10-23T20:40:14.782Z,30.67
2017-10-23T20:42:41.480Z,35.40
2017-10-23T20:47:41.390Z,34.67
2017-10-23T20:50:08.161Z,32.90
2017-10-23T20:52:35.141Z,26.80
2017-10-23T20:55:01.889Z,26.43
2017-10-23T20:57:28.762Z,26.60
2017-10-23T20:59:55.361Z,27.07
2017-10-23T21:02:22.164Z,29.13
2017-10-23T21:04:48.781Z,25.73
2017-10-23T21:07:15.512Z,25.33
2017-10-23T21:09:42.169Z,26.70
2017-10-23T21:12:09.667Z,25.70
2017-10-23T21:14:36.415Z,28.67
2017-10-23T21:17:03.594Z,22.33
2017-10-23T21:19:31.175Z,25.10
2017-10-23T21:21:57.769Z,25.93
2017-10-23T21:24:24.929Z,18.87
2017-10-23T21:26:52.374Z,21.90
2017-10-23T21:29:19.103Z,21.50
2017-10-23T21:31:46.000Z,17.60
2017-10-23T21:34:13.572Z,18.30
2017-10-23T21:36:41.134Z,16.13
2017-10-23T21:39:07.899Z,19.13
2017-10-23T21:41:34.682Z,14.87
2017-10-23T21:44:02.227Z,16.73
2017-10-23T21:46:41.138Z,16.43
2017-10-23T21:49:08.221Z,13.30
2017-10-23T21:51:35.935Z,15.33
2017-10-23T21:54:03.027Z,17.80
2017-10-23T21:56:29.589Z,16.73
2017-10-23T21:58:56.237Z,16.03
2017-10-23T22:01:23.064Z,15.47
2017-10-23T22:03:49.936Z,16.03
2017-10-23T22:06:17.363Z,14.90
2017-10-23T22:08:44.902Z,14.13
2017-10-23T22:11:12.459Z,19.57
2017-10-23T22:13:39.018Z,17.03
2017-10-23T22:16:06.492Z,15.30
2017-10-23T22:18:32.999Z,14.57
2017-10-23T22:21:00.589Z,17.20
2017-10-23T22:23:27.274Z,11.07
2017-10-23T22:25:54.027Z,19.67
2017-10-23T22:28:20.598Z,14.30
2017-10-23T22:30:47.998Z,15.60
2017-10-23T22:33:14.503Z,16.03
2017-10-23T22:35:41.243Z,19.60
2017-10-23T22:38:09.343Z,15.07
2017-10-23T22:40:35.939Z,16.03
2017-10-23T22:43:03.339Z,14.63
2017-10-23T22:45:30.184Z,23.13
2017-10-23T22:47:57.662Z,19.90
2017-10-23T22:50:24.460Z,16.63
2017-10-23T22:52:52.028Z,14.90
2017-10-23T22:55:18.968Z,17.03
2017-10-23T22:57:45.701Z,12.50
2017-10-23T23:00:12.448Z,25.90
2017-10-23T23:02:39.193Z,17.13
2017-10-23T23:05:07.723Z,17.17
2017-10-23T23:07:34.291Z,15.73
2017-10-23T23:10:01.269Z,22.70
2017-10-23T23:12:27.956Z,16.43
2017-10-23T23:14:54.922Z,19.43
2017-10-23T23:17:21.548Z,19.07
2017-10-23T23:19:48.381Z,17.63
2017-10-23T23:22:15.028Z,18.00
2017-10-23T23:24:41.840Z,17.20
2017-10-23T23:27:08.544Z,16.63
2017-10-23T23:29:36.036Z,14.77
2017-10-23T23:32:02.719Z,25.70
2017-10-23T23:34:30.215Z,20.93
2017-10-23T23:36:57.169Z,24.10
2017-10-23T23:39:24.274Z,14.40
2017-10-23T23:41:51.102Z,15.87
2017-10-23T23:44:17.841Z,12.50
2017-10-23T23:46:44.726Z,19.80
2017-10-23T23:49:12.324Z,16.90
2017-10-23T23:51:38.984Z,20.20
2017-10-23T23:54:06.377Z,17.57
2017-10-23T23:56:33.368Z,13.30
2017-10-23T23:59:00.109Z,20.43
